Terminal Aerodrome Forecast
Issued by NWS

Home | Current Version | Previous Version | Text Only | Print | Product List | Glossary On
Versions: 1 2 3 4 5 6 7 8 9 10 11 12 13 14 15 16 17 18 19 20 21 22 23 24 25 26 27 28 29 30 31 32 33
000
FTUS43 KDMX 111134
TAFMCW
TAF
KMCW 111134Z 1112/1212 00000KT P6SM SKC
     FM111700 17006KT P6SM SCT050 BKN120
     FM112300 18006KT 3SM -SN BKN015 OVC040
     FM120300 29008KT 2SM -SN BR BKN009 OVC015
     FM120900 32007KT P6SM BKN025 OVC035=

USA.gov is the U.S. government's official web portal to all federal, state and local government web resources and services.